sensor_id;sensor_type;location;lat;lon;timestamp;P1;durP1;ratioP1;P2;durP2;ratioP2
27495;SDS011;14929;51.336;9.416;2023-02-28T00:01:09;1.55;;;1.45;;
27495;SDS011;14929;51.336;9.416;2023-02-28T00:03:37;1.75;;;1.30;;
27495;SDS011;14929;51.336;9.416;2023-02-28T00:06:06;1.48;;;1.38;;
27495;SDS011;14929;51.336;9.416;2023-02-28T00:08:35;1.75;;;1.10;;
27495;SDS011;14929;51.336;9.416;2023-02-28T00:11:03;1.48;;;1.38;;
27495;SDS011;14929;51.336;9.416;2023-02-28T00:13:33;1.15;;;1.05;;
27495;SDS011;14929;51.336;9.416;2023-02-28T00:16:03;1.27;;;1.17;;
27495;SDS011;14929;51.336;9.416;2023-02-28T00:18:33;1.88;;;1.77;;
27495;SDS011;14929;51.336;9.416;2023-02-28T00:21:02;5.05;;;1.70;;
27495;SDS011;14929;51.336;9.416;2023-02-28T00:23:31;1.70;;;1.60;;
27495;SDS011;14929;51.336;9.416;2023-02-28T00:25:59;1.77;;;1.40;;
27495;SDS011;14929;51.336;9.416;2023-02-28T00:28:27;1.83;;;1.50;;
27495;SDS011;14929;51.336;9.416;2023-02-28T00:30:54;1.60;;;1.35;;
27495;SDS011;14929;51.336;9.416;2023-02-28T00:33:22;1.23;;;1.05;;
27495;SDS011;14929;51.336;9.416;2023-02-28T00:35:49;0.93;;;0.93;;
27495;SDS011;14929;51.336;9.416;2023-02-28T00:38:17;1.33;;;1.15;;
27495;SDS011;14929;51.336;9.416;2023-02-28T00:40:46;1.33;;;1.20;;
27495;SDS011;14929;51.336;9.416;2023-02-28T00:43:13;1.33;;;1.23;;
27495;SDS011;14929;51.336;9.416;2023-02-28T00:45:40;1.27;;;1.17;;
27495;SDS011;14929;51.336;9.416;2023-02-28T00:48:08;1.30;;;1.20;;
27495;SDS011;14929;51.336;9.416;2023-02-28T00:50:35;1.30;;;1.20;;
27495;SDS011;14929;51.336;9.416;2023-02-28T00:53:03;1.52;;;1.00;;
27495;SDS011;14929;51.336;9.416;2023-02-28T00:55:30;2.25;;;1.25;;
27495;SDS011;14929;51.336;9.416;2023-02-28T00:57:59;1.17;;;1.08;;
27495;SDS011;14929;51.336;9.416;2023-02-28T01:00:27;0.75;;;0.75;;
27495;SDS011;14929;51.336;9.416;2023-02-28T01:02:54;1.35;;;0.90;;
27495;SDS011;14929;51.336;9.416;2023-02-28T01:05:21;0.93;;;0.80;;
27495;SDS011;14929;51.336;9.416;2023-02-28T01:07:49;1.30;;;1.13;;
27495;SDS011;14929;51.336;9.416;2023-02-28T01:10:16;2.78;;;1.17;;
27495;SDS011;14929;51.336;9.416;2023-02-28T01:12:45;1.00;;;1.00;;
27495;SDS011;14929;51.336;9.416;2023-02-28T01:15:14;0.80;;;0.80;;
27495;SDS011;14929;51.336;9.416;2023-02-28T01:17:42;0.80;;;0.80;;
27495;SDS011;14929;51.336;9.416;2023-02-28T01:20:10;0.95;;;0.95;;
27495;SDS011;14929;51.336;9.416;2023-02-28T01:22:38;0.65;;;0.65;;
27495;SDS011;14929;51.336;9.416;2023-02-28T01:25:06;0.85;;;0.85;;
27495;SDS011;14929;51.336;9.416;2023-02-28T01:27:34;0.80;;;0.80;;
27495;SDS011;14929;51.336;9.416;2023-02-28T01:30:01;0.70;;;0.70;;
27495;SDS011;14929;51.336;9.416;2023-02-28T01:32:31;0.88;;;0.88;;
27495;SDS011;14929;51.336;9.416;2023-02-28T01:34:59;1.00;;;0.95;;
27495;SDS011;14929;51.336;9.416;2023-02-28T01:37:26;0.80;;;0.80;;
27495;SDS011;14929;51.336;9.416;2023-02-28T01:39:54;0.70;;;0.70;;
27495;SDS011;14929;51.336;9.416;2023-02-28T01:42:21;0.70;;;0.70;;
27495;SDS011;14929;51.336;9.416;2023-02-28T01:44:57;0.70;;;0.70;;
27495;SDS011;14929;51.336;9.416;2023-02-28T01:47:36;0.93;;;0.90;;
27495;SDS011;14929;51.336;9.416;2023-02-28T01:50:07;0.90;;;0.90;;
27495;SDS011;14929;51.336;9.416;2023-02-28T01:52:38;0.73;;;0.73;;
27495;SDS011;14929;51.336;9.416;2023-02-28T01:55:07;0.70;;;0.70;;
27495;SDS011;14929;51.336;9.416;2023-02-28T01:57:36;1.70;;;1.13;;
27495;SDS011;14929;51.336;9.416;2023-02-28T02:00:09;1.13;;;1.02;;
27495;SDS011;14929;51.336;9.416;2023-02-28T02:02:42;1.05;;;1.00;;
27495;SDS011;14929;51.336;9.416;2023-02-28T02:05:12;1.08;;;1.05;;
27495;SDS011;14929;51.336;9.416;2023-02-28T02:07:43;0.75;;;0.75;;
27495;SDS011;14929;51.336;9.416;2023-02-28T02:10:12;0.80;;;0.80;;
27495;SDS011;14929;51.336;9.416;2023-02-28T02:12:52;1.10;;;1.10;;
27495;SDS011;14929;51.336;9.416;2023-02-28T02:15:32;0.80;;;0.80;;
27495;SDS011;14929;51.336;9.416;2023-02-28T02:18:06;0.80;;;0.80;;
27495;SDS011;14929;51.336;9.416;2023-02-28T02:21:02;0.80;;;0.80;;
27495;SDS011;14929;51.336;9.416;2023-02-28T02:24:16;0.95;;;0.90;;
27495;SDS011;14929;51.336;9.416;2023-02-28T02:27:10;0.98;;;0.98;;
27495;SDS011;14929;51.336;9.416;2023-02-28T02:29:51;0.90;;;0.90;;
27495;SDS011;14929;51.336;9.416;2023-02-28T02:33:06;1.25;;;1.23;;
27495;SDS011;14929;51.336;9.416;2023-02-28T02:35:52;0.90;;;0.90;;
27495;SDS011;14929;51.336;9.416;2023-02-28T02:38:25;1.77;;;1.15;;
27495;SDS011;14929;51.336;9.416;2023-02-28T02:41:08;0.75;;;0.75;;
27495;SDS011;14929;51.336;9.416;2023-02-28T02:43:41;1.10;;;1.10;;
27495;SDS011;14929;51.336;9.416;2023-02-28T02:46:14;0.70;;;0.70;;
27495;SDS011;14929;51.336;9.416;2023-02-28T02:48:45;0.93;;;0.93;;
27495;SDS011;14929;51.336;9.416;2023-02-28T02:51:16;0.70;;;0.70;;
27495;SDS011;14929;51.336;9.416;2023-02-28T02:53:46;1.15;;;1.00;;
27495;SDS011;14929;51.336;9.416;2023-02-28T02:56:15;0.90;;;0.90;;
27495;SDS011;14929;51.336;9.416;2023-02-28T02:58:48;1.25;;;1.15;;
27495;SDS011;14929;51.336;9.416;2023-02-28T03:01:18;0.93;;;0.88;;
27495;SDS011;14929;51.336;9.416;2023-02-28T03:03:52;1.05;;;0.95;;
27495;SDS011;14929;51.336;9.416;2023-02-28T03:06:23;0.80;;;0.80;;
27495;SDS011;14929;51.336;9.416;2023-02-28T03:08:51;0.60;;;0.60;;
27495;SDS011;14929;51.336;9.416;2023-02-28T03:11:18;0.80;;;0.80;;
27495;SDS011;14929;51.336;9.416;2023-02-28T03:14:08;1.10;;;1.10;;
27495;SDS011;14929;51.336;9.416;2023-02-28T03:19:38;1.67;;;1.10;;
27495;SDS011;14929;51.336;9.416;2023-02-28T03:22:22;1.30;;;1.05;;
27495;SDS011;14929;51.336;9.416;2023-02-28T03:25:02;1.05;;;1.00;;
27495;SDS011;14929;51.336;9.416;2023-02-28T03:27:35;1.08;;;1.08;;
27495;SDS011;14929;51.336;9.416;2023-02-28T03:30:06;1.00;;;1.00;;
27495;SDS011;14929;51.336;9.416;2023-02-28T03:32:40;0.80;;;0.80;;
27495;SDS011;14929;51.336;9.416;2023-02-28T03:35:12;0.85;;;0.85;;
27495;SDS011;14929;51.336;9.416;2023-02-28T03:37:49;0.88;;;0.88;;
27495;SDS011;14929;51.336;9.416;2023-02-28T03:40:20;0.95;;;0.95;;
27495;SDS011;14929;51.336;9.416;2023-02-28T03:42:52;0.70;;;0.70;;
27495;SDS011;14929;51.336;9.416;2023-02-28T03:45:24;0.80;;;0.80;;
27495;SDS011;14929;51.336;9.416;2023-02-28T03:47:54;0.98;;;0.98;;
27495;SDS011;14929;51.336;9.416;2023-02-28T03:50:25;0.90;;;0.90;;
27495;SDS011;14929;51.336;9.416;2023-02-28T03:52:58;0.90;;;0.90;;
27495;SDS011;14929;51.336;9.416;2023-02-28T03:55:30;0.98;;;0.98;;
27495;SDS011;14929;51.336;9.416;2023-02-28T03:58:01;0.90;;;0.90;;
27495;SDS011;14929;51.336;9.416;2023-02-28T04:00:34;0.85;;;0.85;;
27495;SDS011;14929;51.336;9.416;2023-02-28T04:03:04;1.00;;;1.00;;
27495;SDS011;14929;51.336;9.416;2023-02-28T04:05:31;2.20;;;1.02;;
27495;SDS011;14929;51.336;9.416;2023-02-28T04:08:04;0.82;;;0.82;;
27495;SDS011;14929;51.336;9.416;2023-02-28T04:10:33;0.95;;;0.95;;
27495;SDS011;14929;51.336;9.416;2023-02-28T04:13:01;1.00;;;1.00;;
27495;SDS011;14929;51.336;9.416;2023-02-28T04:15:28;1.17;;;1.08;;
27495;SDS011;14929;51.336;9.416;2023-02-28T04:17:57;0.73;;;0.73;;
27495;SDS011;14929;51.336;9.416;2023-02-28T04:20:24;0.80;;;0.80;;
27495;SDS011;14929;51.336;9.416;2023-02-28T04:22:52;1.05;;;0.80;;
27495;SDS011;14929;51.336;9.416;2023-02-28T04:25:21;0.70;;;0.70;;
27495;SDS011;14929;51.336;9.416;2023-02-28T04:27:48;0.80;;;0.80;;
27495;SDS011;14929;51.336;9.416;2023-02-28T04:30:16;0.95;;;0.95;;
27495;SDS011;14929;51.336;9.416;2023-02-28T04:32:43;0.90;;;0.90;;
27495;SDS011;14929;51.336;9.416;2023-02-28T04:35:11;0.82;;;0.70;;
27495;SDS011;14929;51.336;9.416;2023-02-28T04:37:39;0.90;;;0.90;;
27495;SDS011;14929;51.336;9.416;2023-02-28T04:40:07;0.80;;;0.80;;
27495;SDS011;14929;51.336;9.416;2023-02-28T04:42:37;0.77;;;0.77;;
27495;SDS011;14929;51.336;9.416;2023-02-28T04:45:05;1.00;;;1.00;;
27495;SDS011;14929;51.336;9.416;2023-02-28T04:47:35;0.88;;;0.88;;
27495;SDS011;14929;51.336;9.416;2023-02-28T04:50:02;0.80;;;0.80;;
27495;SDS011;14929;51.336;9.416;2023-02-28T04:52:31;1.08;;;1.08;;
27495;SDS011;14929;51.336;9.416;2023-02-28T04:54:58;0.80;;;0.80;;
27495;SDS011;14929;51.336;9.416;2023-02-28T04:57:26;0.95;;;0.95;;
27495;SDS011;14929;51.336;9.416;2023-02-28T04:59:56;0.93;;;0.93;;
27495;SDS011;14929;51.336;9.416;2023-02-28T05:02:23;0.93;;;0.93;;
27495;SDS011;14929;51.336;9.416;2023-02-28T05:04:51;1.10;;;1.10;;
27495;SDS011;14929;51.336;9.416;2023-02-28T05:07:18;1.30;;;1.20;;
27495;SDS011;14929;51.336;9.416;2023-02-28T05:09:46;1.30;;;1.20;;
27495;SDS011;14929;51.336;9.416;2023-02-28T05:12:13;1.45;;;1.35;;
27495;SDS011;14929;51.336;9.416;2023-02-28T05:14:41;1.35;;;1.25;;
27495;SDS011;14929;51.336;9.416;2023-02-28T05:17:10;1.42;;;1.33;;
27495;SDS011;14929;51.336;9.416;2023-02-28T05:19:38;1.08;;;1.08;;
27495;SDS011;14929;51.336;9.416;2023-02-28T05:22:11;1.48;;;1.33;;
27495;SDS011;14929;51.336;9.416;2023-02-28T05:24:41;0.90;;;0.90;;
27495;SDS011;14929;51.336;9.416;2023-02-28T05:27:09;2.63;;;1.00;;
27495;SDS011;14929;51.336;9.416;2023-02-28T05:29:37;1.77;;;1.63;;
27495;SDS011;14929;51.336;9.416;2023-02-28T05:32:08;1.10;;;1.10;;
27495;SDS011;14929;51.336;9.416;2023-02-28T05:34:38;1.30;;;1.20;;
27495;SDS011;14929;51.336;9.416;2023-02-28T05:37:06;1.10;;;1.10;;
27495;SDS011;14929;51.336;9.416;2023-02-28T05:39:35;1.20;;;1.17;;
27495;SDS011;14929;51.336;9.416;2023-02-28T05:42:03;1.52;;;1.42;;
27495;SDS011;14929;51.336;9.416;2023-02-28T05:44:31;4.05;;;2.83;;
27495;SDS011;14929;51.336;9.416;2023-02-28T05:46:59;4.53;;;2.15;;
27495;SDS011;14929;51.336;9.416;2023-02-28T05:49:28;1.83;;;1.40;;
27495;SDS011;14929;51.336;9.416;2023-02-28T05:51:55;2.33;;;2.05;;
27495;SDS011;14929;51.336;9.416;2023-02-28T05:54:23;1.50;;;1.40;;
27495;SDS011;14929;51.336;9.416;2023-02-28T05:56:50;2.08;;;1.88;;
27495;SDS011;14929;51.336;9.416;2023-02-28T05:59:18;2.00;;;1.70;;
27495;SDS011;14929;51.336;9.416;2023-02-28T06:01:45;1.92;;;1.70;;
27495;SDS011;14929;51.336;9.416;2023-02-28T06:04:14;2.22;;;2.03;;
27495;SDS011;14929;51.336;9.416;2023-02-28T06:06:45;3.50;;;2.03;;
27495;SDS011;14929;51.336;9.416;2023-02-28T06:09:14;3.83;;;1.92;;
27495;SDS011;14929;51.336;9.416;2023-02-28T06:11:44;1.85;;;1.60;;
27495;SDS011;14929;51.336;9.416;2023-02-28T06:14:12;1.35;;;1.20;;
27495;SDS011;14929;51.336;9.416;2023-02-28T06:16:42;3.13;;;1.60;;
27495;SDS011;14929;51.336;9.416;2023-02-28T06:19:10;3.40;;;2.30;;
27495;SDS011;14929;51.336;9.416;2023-02-28T06:21:38;3.97;;;3.10;;
27495;SDS011;14929;51.336;9.416;2023-02-28T06:24:07;3.30;;;3.00;;
27495;SDS011;14929;51.336;9.416;2023-02-28T06:26:35;5.60;;;4.43;;
27495;SDS011;14929;51.336;9.416;2023-02-28T06:29:03;4.15;;;2.53;;
27495;SDS011;14929;51.336;9.416;2023-02-28T06:31:32;2.50;;;2.30;;
27495;SDS011;14929;51.336;9.416;2023-02-28T06:33:59;2.38;;;2.17;;
27495;SDS011;14929;51.336;9.416;2023-02-28T06:36:27;2.50;;;1.70;;
27495;SDS011;14929;51.336;9.416;2023-02-28T06:38:54;2.35;;;2.17;;
27495;SDS011;14929;51.336;9.416;2023-02-28T06:41:24;2.60;;;2.10;;
27495;SDS011;14929;51.336;9.416;2023-02-28T06:43:52;2.50;;;2.30;;
27495;SDS011;14929;51.336;9.416;2023-02-28T06:46:20;1.73;;;1.63;;
27495;SDS011;14929;51.336;9.416;2023-02-28T06:48:48;1.60;;;1.50;;
27495;SDS011;14929;51.336;9.416;2023-02-28T06:51:16;2.35;;;1.70;;
27495;SDS011;14929;51.336;9.416;2023-02-28T06:53:47;1.50;;;1.40;;
27495;SDS011;14929;51.336;9.416;2023-02-28T06:56:15;2.05;;;1.75;;
27495;SDS011;14929;51.336;9.416;2023-02-28T06:58:47;2.88;;;2.42;;
27495;SDS011;14929;51.336;9.416;2023-02-28T07:01:15;2.97;;;2.05;;
27495;SDS011;14929;51.336;9.416;2023-02-28T07:03:43;2.33;;;1.83;;
27495;SDS011;14929;51.336;9.416;2023-02-28T07:06:11;2.47;;;1.95;;
27495;SDS011;14929;51.336;9.416;2023-02-28T07:08:39;3.42;;;1.75;;
27495;SDS011;14929;51.336;9.416;2023-02-28T07:11:07;2.03;;;1.90;;
27495;SDS011;14929;51.336;9.416;2023-02-28T07:13:35;1.65;;;1.55;;
27495;SDS011;14929;51.336;9.416;2023-02-28T07:16:04;1.40;;;1.25;;
27495;SDS011;14929;51.336;9.416;2023-02-28T07:18:34;1.50;;;1.40;;
27495;SDS011;14929;51.336;9.416;2023-02-28T07:21:02;1.48;;;1.38;;
27495;SDS011;14929;51.336;9.416;2023-02-28T07:23:31;1.45;;;1.35;;
27495;SDS011;14929;51.336;9.416;2023-02-28T07:25:58;1.52;;;1.40;;
27495;SDS011;14929;51.336;9.416;2023-02-28T07:28:26;1.60;;;1.50;;
27495;SDS011;14929;51.336;9.416;2023-02-28T07:30:54;1.60;;;1.50;;
27495;SDS011;14929;51.336;9.416;2023-02-28T07:33:23;1.30;;;1.20;;
27495;SDS011;14929;51.336;9.416;2023-02-28T07:35:50;1.58;;;1.48;;
27495;SDS011;14929;51.336;9.416;2023-02-28T07:38:18;0.98;;;0.98;;
27495;SDS011;14929;51.336;9.416;2023-02-28T07:40:45;1.42;;;1.30;;
27495;SDS011;14929;51.336;9.416;2023-02-28T07:43:13;2.10;;;1.85;;
27495;SDS011;14929;51.336;9.416;2023-02-28T07:45:40;2.15;;;1.95;;
27495;SDS011;14929;51.336;9.416;2023-02-28T07:48:08;1.83;;;1.50;;
27495;SDS011;14929;51.336;9.416;2023-02-28T07:50:37;2.63;;;1.95;;
27495;SDS011;14929;51.336;9.416;2023-02-28T07:53:04;2.05;;;1.77;;
27495;SDS011;14929;51.336;9.416;2023-02-28T07:55:32;1.92;;;1.73;;
27495;SDS011;14929;51.336;9.416;2023-02-28T07:58:00;1.70;;;1.40;;
27495;SDS011;14929;51.336;9.416;2023-02-28T08:00:27;2.35;;;1.50;;
27495;SDS011;14929;51.336;9.416;2023-02-28T08:02:56;1.60;;;1.40;;
27495;SDS011;14929;51.336;9.416;2023-02-28T08:05:24;2.10;;;1.90;;
27495;SDS011;14929;51.336;9.416;2023-02-28T08:07:53;2.00;;;1.75;;
27495;SDS011;14929;51.336;9.416;2023-02-28T08:10:20;3.35;;;1.85;;
27495;SDS011;14929;51.336;9.416;2023-02-28T08:12:48;2.45;;;1.73;;
27495;SDS011;14929;51.336;9.416;2023-02-28T08:15:16;4.60;;;2.20;;
27495;SDS011;14929;51.336;9.416;2023-02-28T08:17:44;2.17;;;1.98;;
27495;SDS011;14929;51.336;9.416;2023-02-28T08:20:11;1.88;;;1.77;;
27495;SDS011;14929;51.336;9.416;2023-02-28T08:22:39;3.70;;;2.20;;
27495;SDS011;14929;51.336;9.416;2023-02-28T08:25:08;2.03;;;1.90;;
27495;SDS011;14929;51.336;9.416;2023-02-28T08:27:36;2.85;;;2.55;;
27495;SDS011;14929;51.336;9.416;2023-02-28T08:30:04;2.13;;;1.90;;
27495;SDS011;14929;51.336;9.416;2023-02-28T08:32:34;1.73;;;1.63;;
27495;SDS011;14929;51.336;9.416;2023-02-28T08:35:02;3.55;;;2.05;;
27495;SDS011;14929;51.336;9.416;2023-02-28T08:37:30;2.63;;;1.90;;
27495;SDS011;14929;51.336;9.416;2023-02-28T08:39:57;2.90;;;2.08;;
27495;SDS011;14929;51.336;9.416;2023-02-28T08:42:26;2.13;;;1.92;;
27495;SDS011;14929;51.336;9.416;2023-02-28T08:44:54;1.92;;;1.83;;
27495;SDS011;14929;51.336;9.416;2023-02-28T08:47:21;1.85;;;1.75;;
27495;SDS011;14929;51.336;9.416;2023-02-28T08:49:49;2.50;;;2.30;;
27495;SDS011;14929;51.336;9.416;2023-02-28T08:52:16;4.60;;;2.45;;
27495;SDS011;14929;51.336;9.416;2023-02-28T08:54:44;2.45;;;2.20;;
27495;SDS011;14929;51.336;9.416;2023-02-28T08:57:11;2.45;;;2.05;;
27495;SDS011;14929;51.336;9.416;2023-02-28T08:59:40;2.33;;;2.03;;
27495;SDS011;14929;51.336;9.416;2023-02-28T09:02:08;2.67;;;2.47;;
27495;SDS011;14929;51.336;9.416;2023-02-28T09:04:36;2.08;;;1.98;;
27495;SDS011;14929;51.336;9.416;2023-02-28T09:07:04;1.83;;;1.65;;
27495;SDS011;14929;51.336;9.416;2023-02-28T09:09:31;2.30;;;2.10;;
27495;SDS011;14929;51.336;9.416;2023-02-28T09:11:59;3.47;;;2.58;;
27495;SDS011;14929;51.336;9.416;2023-02-28T09:14:27;1.70;;;1.60;;
27495;SDS011;14929;51.336;9.416;2023-02-28T09:16:58;2.13;;;1.80;;
27495;SDS011;14929;51.336;9.416;2023-02-28T09:19:25;1.95;;;1.85;;
27495;SDS011;14929;51.336;9.416;2023-02-28T09:21:53;2.15;;;1.95;;
27495;SDS011;14929;51.336;9.416;2023-02-28T09:24:20;2.97;;;2.17;;
27495;SDS011;14929;51.336;9.416;2023-02-28T09:26:48;2.15;;;1.90;;
27495;SDS011;14929;51.336;9.416;2023-02-28T09:29:15;2.85;;;1.73;;
27495;SDS011;14929;51.336;9.416;2023-02-28T09:31:42;3.00;;;2.72;;
27495;SDS011;14929;51.336;9.416;2023-02-28T09:34:11;2.70;;;1.70;;
27495;SDS011;14929;51.336;9.416;2023-02-28T09:36:39;2.25;;;1.95;;
27495;SDS011;14929;51.336;9.416;2023-02-28T09:39:06;2.10;;;1.80;;
27495;SDS011;14929;51.336;9.416;2023-02-28T09:41:36;1.95;;;1.85;;
27495;SDS011;14929;51.336;9.416;2023-02-28T09:44:12;2.55;;;2.17;;
27495;SDS011;14929;51.336;9.416;2023-02-28T09:46:47;1.83;;;1.73;;
27495;SDS011;14929;51.336;9.416;2023-02-28T09:49:21;5.20;;;2.67;;
27495;SDS011;14929;51.336;9.416;2023-02-28T09:51:51;2.20;;;2.00;;
27495;SDS011;14929;51.336;9.416;2023-02-28T09:54:24;4.63;;;2.75;;
27495;SDS011;14929;51.336;9.416;2023-02-28T09:56:55;1.98;;;1.88;;
27495;SDS011;14929;51.336;9.416;2023-02-28T09:59:34;2.10;;;1.90;;
27495;SDS011;14929;51.336;9.416;2023-02-28T10:02:17;2.35;;;2.15;;
27495;SDS011;14929;51.336;9.416;2023-02-28T10:05:06;2.80;;;1.88;;
27495;SDS011;14929;51.336;9.416;2023-02-28T10:07:41;2.08;;;1.70;;
27495;SDS011;14929;51.336;9.416;2023-02-28T10:10:23;2.40;;;2.20;;
27495;SDS011;14929;51.336;9.416;2023-02-28T10:12:54;2.65;;;2.05;;
27495;SDS011;14929;51.336;9.416;2023-02-28T10:15:25;1.90;;;1.80;;
27495;SDS011;14929;51.336;9.416;2023-02-28T10:17:56;2.22;;;2.03;;
27495;SDS011;14929;51.336;9.416;2023-02-28T10:20:29;3.83;;;3.10;;
27495;SDS011;14929;51.336;9.416;2023-02-28T10:23:03;2.65;;;2.30;;
27495;SDS011;14929;51.336;9.416;2023-02-28T10:25:36;2.88;;;1.92;;
27495;SDS011;14929;51.336;9.416;2023-02-28T10:28:11;2.65;;;2.10;;
27495;SDS011;14929;51.336;9.416;2023-02-28T10:30:42;1.95;;;1.83;;
27495;SDS011;14929;51.336;9.416;2023-02-28T10:33:16;2.17;;;2.00;;
27495;SDS011;14929;51.336;9.416;2023-02-28T10:35:49;2.03;;;1.92;;
27495;SDS011;14929;51.336;9.416;2023-02-28T10:38:18;1.75;;;1.65;;
27495;SDS011;14929;51.336;9.416;2023-02-28T10:40:49;4.07;;;2.30;;
27495;SDS011;14929;51.336;9.416;2023-02-28T10:43:19;2.60;;;2.40;;
27495;SDS011;14929;51.336;9.416;2023-02-28T10:45:53;2.33;;;2.13;;
27495;SDS011;14929;51.336;9.416;2023-02-28T10:48:26;2.55;;;2.15;;
27495;SDS011;14929;51.336;9.416;2023-02-28T10:51:02;2.47;;;2.28;;
27495;SDS011;14929;51.336;9.416;2023-02-28T10:53:37;3.20;;;2.88;;
27495;SDS011;14929;51.336;9.416;2023-02-28T10:56:14;1.95;;;1.85;;
27495;SDS011;14929;51.336;9.416;2023-02-28T10:58:50;6.78;;;2.50;;
27495;SDS011;14929;51.336;9.416;2023-02-28T11:01:22;3.25;;;2.42;;
27495;SDS011;14929;51.336;9.416;2023-02-28T11:03:51;3.20;;;2.13;;
27495;SDS011;14929;51.336;9.416;2023-02-28T11:06:21;2.58;;;2.38;;
27495;SDS011;14929;51.336;9.416;2023-02-28T11:08:52;3.65;;;2.30;;
27495;SDS011;14929;51.336;9.416;2023-02-28T11:11:21;4.13;;;2.30;;
27495;SDS011;14929;51.336;9.416;2023-02-28T11:13:51;2.58;;;2.15;;
27495;SDS011;14929;51.336;9.416;2023-02-28T11:16:21;2.80;;;2.60;;
27495;SDS011;14929;51.336;9.416;2023-02-28T11:18:56;2.50;;;2.17;;
27495;SDS011;14929;51.336;9.416;2023-02-28T11:21:26;2.70;;;2.50;;
27495;SDS011;14929;51.336;9.416;2023-02-28T11:23:57;2.70;;;2.50;;
27495;SDS011;14929;51.336;9.416;2023-02-28T11:26:35;1.98;;;1.80;;
27495;SDS011;14929;51.336;9.416;2023-02-28T11:29:11;2.58;;;2.10;;
27495;SDS011;14929;51.336;9.416;2023-02-28T11:31:57;3.92;;;2.35;;
27495;SDS011;14929;51.336;9.416;2023-02-28T11:34:30;3.85;;;2.20;;
27495;SDS011;14929;51.336;9.416;2023-02-28T11:37:00;3.80;;;2.92;;
27495;SDS011;14929;51.336;9.416;2023-02-28T11:39:30;2.90;;;2.60;;
27495;SDS011;14929;51.336;9.416;2023-02-28T11:42:07;3.55;;;2.75;;
27495;SDS011;14929;51.336;9.416;2023-02-28T11:44:53;2.90;;;2.65;;
27495;SDS011;14929;51.336;9.416;2023-02-28T11:47:36;2.72;;;2.50;;
27495;SDS011;14929;51.336;9.416;2023-02-28T11:50:13;4.35;;;2.10;;
27495;SDS011;14929;51.336;9.416;2023-02-28T11:52:50;3.03;;;2.47;;
27495;SDS011;14929;51.336;9.416;2023-02-28T11:55:21;1.90;;;1.80;;
27495;SDS011;14929;51.336;9.416;2023-02-28T11:57:56;2.35;;;2.15;;
27495;SDS011;14929;51.336;9.416;2023-02-28T12:00:38;2.65;;;2.30;;
27495;SDS011;14929;51.336;9.416;2023-02-28T12:03:17;2.58;;;2.38;;
27495;SDS011;14929;51.336;9.416;2023-02-28T12:05:56;2.50;;;2.30;;
27495;SDS011;14929;51.336;9.416;2023-02-28T12:08:44;3.13;;;2.83;;
27495;SDS011;14929;51.336;9.416;2023-02-28T12:11:34;2.10;;;1.90;;
27495;SDS011;14929;51.336;9.416;2023-02-28T12:14:17;2.00;;;1.90;;
27495;SDS011;14929;51.336;9.416;2023-02-28T12:17:06;3.40;;;2.25;;
27495;SDS011;14929;51.336;9.416;2023-02-28T12:19:45;3.28;;;2.97;;
27495;SDS011;14929;51.336;9.416;2023-02-28T12:22:23;2.30;;;2.10;;
27495;SDS011;14929;51.336;9.416;2023-02-28T12:28:10;2.80;;;2.58;;
27495;SDS011;14929;51.336;9.416;2023-02-28T12:30:41;3.75;;;2.05;;
27495;SDS011;14929;51.336;9.416;2023-02-28T12:33:16;1.88;;;1.75;;
27495;SDS011;14929;51.336;9.416;2023-02-28T12:35:47;2.00;;;1.88;;
27495;SDS011;14929;51.336;9.416;2023-02-28T12:38:21;2.05;;;1.80;;
27495;SDS011;14929;51.336;9.416;2023-02-28T12:40:52;3.00;;;2.42;;
27495;SDS011;14929;51.336;9.416;2023-02-28T12:43:25;2.90;;;2.65;;
27495;SDS011;14929;51.336;9.416;2023-02-28T12:45:57;2.28;;;2.08;;
27495;SDS011;14929;51.336;9.416;2023-02-28T12:48:28;3.08;;;2.45;;
27495;SDS011;14929;51.336;9.416;2023-02-28T12:50:59;3.63;;;2.50;;
27495;SDS011;14929;51.336;9.416;2023-02-28T12:53:28;2.53;;;2.20;;
27495;SDS011;14929;51.336;9.416;2023-02-28T12:56:07;3.20;;;2.90;;
27495;SDS011;14929;51.336;9.416;2023-02-28T12:58:39;2.63;;;2.45;;
27495;SDS011;14929;51.336;9.416;2023-02-28T13:07:57;2.28;;;2.13;;
27495;SDS011;14929;51.336;9.416;2023-02-28T13:10:40;2.30;;;2.20;;
27495;SDS011;14929;51.336;9.416;2023-02-28T13:13:15;2.05;;;1.95;;
27495;SDS011;14929;51.336;9.416;2023-02-28T13:16:01;3.83;;;2.70;;
27495;SDS011;14929;51.336;9.416;2023-02-28T13:18:35;2.83;;;2.63;;
27495;SDS011;14929;51.336;9.416;2023-02-28T13:21:05;2.42;;;2.22;;
27495;SDS011;14929;51.336;9.416;2023-02-28T13:23:39;3.20;;;2.90;;
27495;SDS011;14929;51.336;9.416;2023-02-28T13:29:54;2.90;;;2.65;;
27495;SDS011;14929;51.336;9.416;2023-02-28T13:32:35;2.13;;;2.03;;
27495;SDS011;14929;51.336;9.416;2023-02-28T13:38:17;3.50;;;2.90;;
27495;SDS011;14929;51.336;9.416;2023-02-28T13:44:22;3.55;;;2.97;;
27495;SDS011;14929;51.336;9.416;2023-02-28T13:49:50;3.33;;;2.85;;
27495;SDS011;14929;51.336;9.416;2023-02-28T13:52:20;2.97;;;2.70;;
27495;SDS011;14929;51.336;9.416;2023-02-28T13:54:55;2.92;;;2.63;;
27495;SDS011;14929;51.336;9.416;2023-02-28T13:57:44;3.03;;;2.83;;
27495;SDS011;14929;51.336;9.416;2023-02-28T14:00:28;5.55;;;5.05;;
27495;SDS011;14929;51.336;9.416;2023-02-28T14:03:10;3.15;;;2.78;;
27495;SDS011;14929;51.336;9.416;2023-02-28T14:08:44;3.38;;;2.40;;
27495;SDS011;14929;51.336;9.416;2023-02-28T14:11:26;3.35;;;2.72;;
27495;SDS011;14929;51.336;9.416;2023-02-28T14:13:56;3.30;;;3.00;;
27495;SDS011;14929;51.336;9.416;2023-02-28T14:16:25;3.00;;;2.75;;
27495;SDS011;14929;51.336;9.416;2023-02-28T14:18:58;3.22;;;2.85;;
27495;SDS011;14929;51.336;9.416;2023-02-28T14:21:27;3.20;;;2.90;;
27495;SDS011;14929;51.336;9.416;2023-02-28T14:27:24;2.90;;;2.70;;
27495;SDS011;14929;51.336;9.416;2023-02-28T14:30:10;3.20;;;2.95;;
27495;SDS011;14929;51.336;9.416;2023-02-28T14:33:14;3.63;;;3.10;;
27495;SDS011;14929;51.336;9.416;2023-02-28T14:36:12;2.97;;;2.78;;
27495;SDS011;14929;51.336;9.416;2023-02-28T14:38:46;3.88;;;3.35;;
27495;SDS011;14929;51.336;9.416;2023-02-28T14:41:22;5.00;;;3.03;;
27495;SDS011;14929;51.336;9.416;2023-02-28T14:43:54;3.20;;;2.90;;
27495;SDS011;14929;51.336;9.416;2023-02-28T14:46:24;3.95;;;3.10;;
27495;SDS011;14929;51.336;9.416;2023-02-28T14:48:55;4.50;;;3.10;;
27495;SDS011;14929;51.336;9.416;2023-02-28T14:51:24;3.33;;;3.03;;
27495;SDS011;14929;51.336;9.416;2023-02-28T14:53:53;3.88;;;3.50;;
27495;SDS011;14929;51.336;9.416;2023-02-28T14:56:26;3.47;;;3.17;;
27495;SDS011;14929;51.336;9.416;2023-02-28T14:58:57;3.17;;;2.88;;
27495;SDS011;14929;51.336;9.416;2023-02-28T15:01:25;2.97;;;2.70;;
27495;SDS011;14929;51.336;9.416;2023-02-28T15:04:00;3.83;;;3.55;;
27495;SDS011;14929;51.336;9.416;2023-02-28T15:06:31;3.90;;;3.60;;
27495;SDS011;14929;51.336;9.416;2023-02-28T15:09:10;3.30;;;3.05;;
27495;SDS011;14929;51.336;9.416;2023-02-28T15:11:40;4.38;;;2.95;;
27495;SDS011;14929;51.336;9.416;2023-02-28T15:14:13;3.25;;;2.70;;
27495;SDS011;14929;51.336;9.416;2023-02-28T15:16:44;3.13;;;2.83;;
27495;SDS011;14929;51.336;9.416;2023-02-28T15:19:14;4.40;;;3.92;;
27495;SDS011;14929;51.336;9.416;2023-02-28T15:21:48;4.25;;;3.85;;
27495;SDS011;14929;51.336;9.416;2023-02-28T15:24:19;3.00;;;2.80;;
27495;SDS011;14929;51.336;9.416;2023-02-28T15:26:50;2.78;;;2.50;;
27495;SDS011;14929;51.336;9.416;2023-02-28T15:29:21;3.72;;;3.20;;
27495;SDS011;14929;51.336;9.416;2023-02-28T15:31:51;3.58;;;3.00;;
27495;SDS011;14929;51.336;9.416;2023-02-28T15:34:26;3.58;;;3.28;;
27495;SDS011;14929;51.336;9.416;2023-02-28T15:36:59;3.97;;;3.58;;
27495;SDS011;14929;51.336;9.416;2023-02-28T15:39:27;5.75;;;3.45;;
27495;SDS011;14929;51.336;9.416;2023-02-28T15:42:11;3.58;;;3.28;;
27495;SDS011;14929;51.336;9.416;2023-02-28T15:44:39;3.33;;;2.97;;
27495;SDS011;14929;51.336;9.416;2023-02-28T15:47:07;5.25;;;3.17;;